createdAt,value
2023-01-19T00:00:25.255Z,37.37
2023-01-19T00:02:55.005Z,34.60
2023-01-19T00:05:23.446Z,39.20
2023-01-19T00:07:51.653Z,34.47
2023-01-19T00:10:20.049Z,34.63
2023-01-19T00:12:48.305Z,33.70
2023-01-19T00:15:17.982Z,31.17
2023-01-19T00:17:46.295Z,33.20
2023-01-19T00:20:14.618Z,32.50
2023-01-19T00:22:42.863Z,30.93
2023-01-19T00:25:11.518Z,29.03
2023-01-19T00:27:39.768Z,32.07
2023-01-19T00:30:09.574Z,32.17
2023-01-19T00:32:39.199Z,27.40
2023-01-19T00:35:07.856Z,35.27
2023-01-19T00:37:36.076Z,31.93
2023-01-19T00:40:04.487Z,36.03
2023-01-19T00:42:41.486Z,29.60
2023-01-19T00:45:10.964Z,36.93
2023-01-19T00:47:40.671Z,33.07
2023-01-19T00:50:11.731Z,31.20
2023-01-19T00:52:39.991Z,30.87
2023-01-19T00:55:09.286Z,28.93
2023-01-19T00:57:37.523Z,33.57
2023-01-19T01:00:07.300Z,27.57
2023-01-19T01:02:35.729Z,31.73
2023-01-19T01:05:06.177Z,30.77
2023-01-19T01:07:40.704Z,33.53
2023-01-19T01:10:10.400Z,31.40
2023-01-19T01:12:38.723Z,32.70
2023-01-19T01:15:08.931Z,30.13
2023-01-19T01:17:37.247Z,31.77
2023-01-19T01:20:08.043Z,30.33
2023-01-19T01:22:36.276Z,29.30
2023-01-19T01:25:04.642Z,30.97
2023-01-19T01:27:32.893Z,28.80
2023-01-19T01:30:01.166Z,32.27
2023-01-19T01:32:29.871Z,27.17
2023-01-19T01:34:58.165Z,29.33
2023-01-19T01:37:27.850Z,28.67
2023-01-19T01:39:56.242Z,31.60
2023-01-19T01:42:27.919Z,26.90
2023-01-19T01:44:56.922Z,30.80
2023-01-19T01:47:29.353Z,33.37
2023-01-19T01:50:03.520Z,36.80
2023-01-19T01:52:33.632Z,40.97
2023-01-19T01:55:02.073Z,38.80
2023-01-19T01:57:30.337Z,39.10
2023-01-19T01:59:58.635Z,33.17
2023-01-19T02:02:45.884Z,32.53
2023-01-19T02:05:17.052Z,32.30
2023-01-19T02:08:05.307Z,31.43
2023-01-19T02:10:50.968Z,33.97
2023-01-19T02:13:20.659Z,55.80
2023-01-19T02:15:49.702Z,54.47
2023-01-19T02:18:18.073Z,56.60
2023-01-19T02:20:51.913Z,55.97
2023-01-19T02:23:28.711Z,51.40
2023-01-19T02:25:57.004Z,47.93
2023-01-19T02:28:26.206Z,56.00
2023-01-19T02:30:54.576Z,47.90
2023-01-19T02:33:22.886Z,50.97
2023-01-19T02:35:51.508Z,46.77
2023-01-19T02:38:20.031Z,48.80
2023-01-19T02:40:49.791Z,49.43
2023-01-19T02:43:18.430Z,46.83
2023-01-19T02:45:46.826Z,47.23
2023-01-19T02:48:16.126Z,47.17
2023-01-19T02:50:46.359Z,49.40
2023-01-19T02:53:39.886Z,50.77
2023-01-19T02:56:37.806Z,51.17
2023-01-19T02:59:10.683Z,52.90
2023-01-19T03:01:44.320Z,57.00
2023-01-19T03:04:16.000Z,55.73
2023-01-19T03:06:45.960Z,56.37
2023-01-19T03:09:16.737Z,59.03
2023-01-19T03:11:47.561Z,54.53
2023-01-19T03:14:19.671Z,58.43
2023-01-19T03:16:49.108Z,60.73
2023-01-19T03:19:20.260Z,58.07
2023-01-19T03:21:49.402Z,57.83
2023-01-19T03:24:17.664Z,61.13
2023-01-19T03:26:47.104Z,55.77
2023-01-19T03:29:15.705Z,55.57
2023-01-19T03:31:46.164Z,60.07
2023-01-19T03:34:15.165Z,63.80
2023-01-19T03:36:45.388Z,55.83
2023-01-19T03:39:14.043Z,58.90
2023-01-19T03:41:42.394Z,55.97
2023-01-19T03:44:10.620Z,57.30
2023-01-19T03:46:38.924Z,63.13
2023-01-19T03:49:09.333Z,62.27
2023-01-19T03:51:39.051Z,62.23
2023-01-19T03:54:07.339Z,65.67
2023-01-19T03:56:35.590Z,64.77
2023-01-19T03:59:05.526Z,64.43
2023-01-19T04:01:33.883Z,63.10
2023-01-19T04:04:02.243Z,67.63
2023-01-19T04:06:32.198Z,70.37
2023-01-19T04:09:00.569Z,72.30
2023-01-19T04:11:28.812Z,67.67
2023-01-19T04:13:57.075Z,64.73
2023-01-19T04:16:25.418Z,60.80
2023-01-19T04:18:53.806Z,65.77
2023-01-19T04:21:22.092Z,65.67
2023-01-19T04:23:53.043Z,64.60
2023-01-19T04:26:21.329Z,67.17
2023-01-19T04:28:49.568Z,65.13
2023-01-19T04:31:24.686Z,67.43
2023-01-19T04:33:53.066Z,62.23
2023-01-19T04:36:21.278Z,61.97
2023-01-19T04:38:49.740Z,58.10
2023-01-19T04:41:19.493Z,57.67
2023-01-19T04:43:48.130Z,60.03
2023-01-19T04:46:16.561Z,58.93
2023-01-19T04:48:44.769Z,61.47
2023-01-19T04:51:13.111Z,55.97
2023-01-19T04:53:41.377Z,54.33
2023-01-19T04:56:09.684Z,59.70
2023-01-19T04:58:39.582Z,63.40
2023-01-19T05:01:09.564Z,65.50
2023-01-19T05:03:37.865Z,64.40
2023-01-19T05:06:06.651Z,62.93
2023-01-19T05:08:34.893Z,95.20
2023-01-19T05:11:03.247Z,73.30
2023-01-19T05:13:31.495Z,86.80
2023-01-19T05:16:01.479Z,83.13
2023-01-19T05:18:30.011Z,78.57
2023-01-19T05:20:58.244Z,87.50
2023-01-19T05:23:26.492Z,80.37
2023-01-19T05:25:56.357Z,85.87
2023-01-19T05:28:24.661Z,82.17
2023-01-19T05:30:53.028Z,81.60
2023-01-19T05:33:22.708Z,78.63
2023-01-19T05:35:51.481Z,94.77
2023-01-19T05:38:29.374Z,101.63
2023-01-19T05:41:02.567Z,99.90
2023-01-19T05:43:30.845Z,109.70
2023-01-19T05:45:59.063Z,91.93
2023-01-19T05:48:28.681Z,90.47
2023-01-19T05:50:59.443Z,94.33
2023-01-19T05:53:27.685Z,92.93
2023-01-19T05:56:00.865Z,94.33
2023-01-19T05:58:29.142Z,97.70
2023-01-19T06:00:57.467Z,97.83
2023-01-19T06:03:25.883Z,99.07
2023-01-19T06:05:57.485Z,93.33
2023-01-19T06:08:25.847Z,99.80
2023-01-19T06:10:54.318Z,92.90
2023-01-19T06:13:22.658Z,98.60
2023-01-19T06:15:50.939Z,98.57
2023-01-19T06:18:19.182Z,94.17
2023-01-19T06:20:47.476Z,90.97
2023-01-19T06:23:17.124Z,91.93
2023-01-19T06:25:45.422Z,91.33
2023-01-19T06:28:13.646Z,96.20
2023-01-19T06:30:41.931Z,100.93
2023-01-19T06:33:10.160Z,106.97
2023-01-19T06:35:38.395Z,97.80
2023-01-19T06:38:06.672Z,98.20
2023-01-19T06:40:36.420Z,91.93
2023-01-19T06:43:04.650Z,85.60
2023-01-19T06:45:33.106Z,84.00
2023-01-19T06:48:01.378Z,89.93
2023-01-19T06:50:29.825Z,81.43
2023-01-19T06:52:58.691Z,83.33
2023-01-19T06:55:28.018Z,78.57
2023-01-19T06:58:01.404Z,86.50
2023-01-19T07:00:29.705Z,91.67
2023-01-19T07:02:57.994Z,90.67
2023-01-19T07:05:26.419Z,95.37
2023-01-19T07:07:54.790Z,89.53
2023-01-19T07:10:23.111Z,87.30
2023-01-19T07:12:51.452Z,90.03
2023-01-19T07:15:23.015Z,87.97
2023-01-19T07:17:51.278Z,99.07
2023-01-19T07:20:19.772Z,106.10
2023-01-19T07:22:49.007Z,92.63
2023-01-19T07:25:17.867Z,98.73
2023-01-19T07:27:46.115Z,91.43
2023-01-19T07:30:16.182Z,94.60
2023-01-19T07:32:45.924Z,100.33
2023-01-19T07:35:14.518Z,96.63
2023-01-19T07:37:42.788Z,87.43
2023-01-19T07:40:12.359Z,87.70
2023-01-19T07:42:40.757Z,95.33
2023-01-19T07:45:10.217Z,83.03
2023-01-19T07:47:38.526Z,82.87
2023-01-19T07:50:09.332Z,80.33
2023-01-19T07:52:37.581Z,82.40
2023-01-19T07:55:06.477Z,88.77
2023-01-19T07:57:35.126Z,81.37
2023-01-19T08:00:05.027Z,78.57
2023-01-19T08:02:34.116Z,88.03
2023-01-19T08:05:02.856Z,74.93
2023-01-19T08:07:32.485Z,75.63
2023-01-19T08:10:00.771Z,72.30
2023-01-19T08:12:29.537Z,65.33
2023-01-19T08:14:57.814Z,63.73
2023-01-19T08:17:26.048Z,58.47
2023-01-19T08:19:54.440Z,65.23
2023-01-19T08:22:22.698Z,61.30
2023-01-19T08:24:53.114Z,55.83
2023-01-19T08:27:21.344Z,59.63
2023-01-19T08:29:49.660Z,54.87
2023-01-19T08:32:18.247Z,57.20
2023-01-19T08:34:46.623Z,53.17
2023-01-19T08:37:14.972Z,50.00
2023-01-19T08:39:43.279Z,54.53
2023-01-19T08:42:12.938Z,58.37
2023-01-19T08:44:49.665Z,58.47
2023-01-19T08:47:25.302Z,57.63
2023-01-19T08:49:53.617Z,57.37
2023-01-19T08:52:21.867Z,59.67
2023-01-19T08:54:50.158Z,59.00
2023-01-19T08:57:19.787Z,56.33
2023-01-19T08:59:48.534Z,55.47
2023-01-19T09:02:16.855Z,58.10
2023-01-19T09:04:45.176Z,59.73
2023-01-19T09:07:13.447Z,63.10
2023-01-19T09:09:43.548Z,64.93
2023-01-19T09:12:11.816Z,60.27
2023-01-19T09:14:41.544Z,64.83
2023-01-19T09:17:09.815Z,63.27
2023-01-19T09:19:38.125Z,62.33
2023-01-19T09:22:06.414Z,65.83
2023-01-19T09:24:35.080Z,65.17
2023-01-19T09:27:03.306Z,72.40
2023-01-19T09:29:31.612Z,63.10
2023-01-19T09:32:01.258Z,66.90
2023-01-19T09:34:29.778Z,63.50
2023-01-19T09:36:58.041Z,67.70
2023-01-19T09:39:26.488Z,73.60
2023-01-19T09:41:59.789Z,66.97
2023-01-19T09:44:30.027Z,70.50
2023-01-19T09:46:58.662Z,73.53
2023-01-19T09:49:29.757Z,72.57
2023-01-19T09:51:58.042Z,75.80
2023-01-19T09:54:30.551Z,78.37
2023-01-19T09:56:58.811Z,78.47
2023-01-19T09:59:28.038Z,79.77
2023-01-19T10:02:17.678Z,76.80
2023-01-19T10:04:49.113Z,68.50
2023-01-19T10:07:24.049Z,68.73
2023-01-19T10:10:05.129Z,66.37
2023-01-19T10:12:40.719Z,68.00
2023-01-19T10:15:16.457Z,64.67
2023-01-19T10:17:50.135Z,73.37
2023-01-19T10:20:24.196Z,71.90
2023-01-19T10:22:52.495Z,71.63
2023-01-19T10:25:23.819Z,69.40
2023-01-19T10:27:52.235Z,69.23
2023-01-19T10:30:23.298Z,72.20
2023-01-19T10:32:51.879Z,74.17
2023-01-19T10:35:25.772Z,72.70
2023-01-19T10:37:56.228Z,77.93
2023-01-19T10:40:28.926Z,71.80
2023-01-19T10:42:57.578Z,68.63
2023-01-19T10:45:28.598Z,75.20
2023-01-19T10:47:57.228Z,83.80
2023-01-19T10:50:29.282Z,78.27
2023-01-19T10:52:58.861Z,75.90
2023-01-19T10:55:29.319Z,75.30
2023-01-19T10:57:57.657Z,76.13
2023-01-19T11:00:33.965Z,73.50
2023-01-19T11:03:02.530Z,66.77
2023-01-19T11:05:33.561Z,58.03
2023-01-19T11:08:01.863Z,58.13
2023-01-19T11:10:30.315Z,56.33
2023-01-19T11:13:03.831Z,62.00
2023-01-19T11:15:34.866Z,62.77
2023-01-19T11:18:04.444Z,60.93
2023-01-19T11:20:40.751Z,57.60
2023-01-19T11:23:12.272Z,58.10
2023-01-19T11:25:40.535Z,60.40
2023-01-19T11:28:15.336Z,66.70
2023-01-19T11:30:55.486Z,55.93
2023-01-19T11:33:27.900Z,56.63
2023-01-19T11:36:05.822Z,52.07
2023-01-19T11:38:34.082Z,47.97
2023-01-19T11:41:06.795Z,49.57
2023-01-19T11:43:48.368Z,48.57
2023-01-19T11:46:17.327Z,50.93
2023-01-19T11:48:48.502Z,55.13
2023-01-19T11:51:19.063Z,47.90
2023-01-19T11:53:48.291Z,52.20
2023-01-19T11:56:17.337Z,47.73
2023-01-19T11:58:46.922Z,51.20
2023-01-19T12:01:21.103Z,52.97
2023-01-19T12:03:54.753Z,50.37
2023-01-19T12:06:26.955Z,52.97
2023-01-19T12:08:56.629Z,53.57
2023-01-19T12:11:26.667Z,51.40
2023-01-19T12:13:54.896Z,61.57
2023-01-19T12:16:23.864Z,55.17
2023-01-19T12:18:55.795Z,50.97
2023-01-19T12:21:25.543Z,52.07
2023-01-19T12:23:59.077Z,48.27
2023-01-19T12:26:32.573Z,53.77
2023-01-19T12:29:01.959Z,53.80
2023-01-19T12:31:30.335Z,49.63
2023-01-19T12:34:16.685Z,43.77
2023-01-19T12:36:46.569Z,49.07
2023-01-19T12:39:18.445Z,50.67
2023-01-19T12:41:47.180Z,53.90
2023-01-19T12:44:35.051Z,59.57
2023-01-19T12:47:20.263Z,49.83
2023-01-19T12:49:50.395Z,53.30
2023-01-19T12:52:28.117Z,51.77
2023-01-19T12:55:04.775Z,51.87
2023-01-19T12:57:35.148Z,52.67
2023-01-19T13:00:06.118Z,50.07
2023-01-19T13:02:52.722Z,62.17
2023-01-19T13:05:24.449Z,57.00
2023-01-19T13:08:19.044Z,62.80
2023-01-19T13:11:13.971Z,56.77
2023-01-19T13:13:43.877Z,57.97
2023-01-19T13:16:49.685Z,56.20
2023-01-19T13:19:18.475Z,48.50
2023-01-19T13:21:47.437Z,49.57
2023-01-19T13:24:17.826Z,47.97
2023-01-19T13:26:55.603Z,42.97
2023-01-19T13:29:28.309Z,46.97
2023-01-19T13:32:02.675Z,44.43
2023-01-19T13:34:32.071Z,38.30
2023-01-19T13:37:00.528Z,41.40
2023-01-19T13:39:31.505Z,34.37
2023-01-19T13:42:02.283Z,41.67
2023-01-19T13:44:31.391Z,38.93
2023-01-19T13:46:59.919Z,39.20
2023-01-19T13:49:29.697Z,41.10
2023-01-19T13:52:08.738Z,33.43
2023-01-19T13:54:38.494Z,36.30
2023-01-19T13:57:06.722Z,36.87
2023-01-19T13:59:35.034Z,41.40
2023-01-19T14:02:05.950Z,42.13
2023-01-19T14:04:35.088Z,44.50
2023-01-19T14:07:04.432Z,39.47
2023-01-19T14:09:32.791Z,39.27
2023-01-19T14:12:12.064Z,44.57
2023-01-19T14:14:40.549Z,38.03
2023-01-19T14:17:27.765Z,35.73
2023-01-19T14:19:56.880Z,35.70
2023-01-19T14:22:39.442Z,36.80
2023-01-19T14:25:30.421Z,39.20
2023-01-19T14:28:28.707Z,36.23
2023-01-19T14:30:57.815Z,34.07
2023-01-19T14:33:36.453Z,35.67
2023-01-19T14:36:30.970Z,39.07
2023-01-19T14:39:00.267Z,39.83
2023-01-19T14:41:32.537Z,43.67
2023-01-19T14:44:02.172Z,43.13
2023-01-19T14:46:30.507Z,39.20
2023-01-19T14:49:01.862Z,42.20
2023-01-19T14:51:30.155Z,44.57
2023-01-19T14:53:59.205Z,39.83
2023-01-19T14:56:28.293Z,39.27
2023-01-19T14:58:56.940Z,42.30
2023-01-19T15:01:28.515Z,38.57
2023-01-19T15:03:57.994Z,34.27
2023-01-19T15:06:26.688Z,34.50
2023-01-19T15:08:54.981Z,34.53
2023-01-19T15:11:24.550Z,38.53
2023-01-19T15:13:52.843Z,36.80
2023-01-19T15:16:21.146Z,37.57
2023-01-19T15:18:50.812Z,43.67
2023-01-19T15:21:20.642Z,36.87
2023-01-19T15:23:48.949Z,44.83
2023-01-19T15:26:19.668Z,41.57
2023-01-19T15:28:48.853Z,50.83
2023-01-19T15:31:17.650Z,48.50
2023-01-19T15:33:46.082Z,48.30
2023-01-19T15:36:17.959Z,46.67
2023-01-19T15:38:46.693Z,45.60
2023-01-19T15:41:15.265Z,48.37
2023-01-19T15:43:43.504Z,41.13
2023-01-19T15:46:12.474Z,45.87
2023-01-19T15:48:40.768Z,41.07
2023-01-19T15:51:13.089Z,43.77
2023-01-19T15:53:42.880Z,43.87
2023-01-19T15:56:15.210Z,46.97
2023-01-19T15:58:43.528Z,51.77
2023-01-19T16:01:13.640Z,47.70
2023-01-19T16:03:41.975Z,48.23
2023-01-19T16:06:10.364Z,48.17
2023-01-19T16:08:38.818Z,52.20
2023-01-19T16:11:08.983Z,51.00
2023-01-19T16:13:37.227Z,53.27
2023-01-19T16:16:05.799Z,54.17
2023-01-19T16:18:34.134Z,53.80
2023-01-19T16:21:02.482Z,55.97
2023-01-19T16:23:30.743Z,56.33
2023-01-19T16:25:59.801Z,53.20
2023-01-19T16:28:29.856Z,50.83
2023-01-19T16:30:58.204Z,48.47
2023-01-19T16:33:26.593Z,57.50
2023-01-19T16:35:55.025Z,51.47
2023-01-19T16:38:23.866Z,54.13
2023-01-19T16:40:52.134Z,55.23
2023-01-19T16:43:20.418Z,51.43
2023-01-19T16:46:00.242Z,55.50
2023-01-19T16:48:28.660Z,58.23
2023-01-19T16:51:02.833Z,56.27
2023-01-19T16:53:31.200Z,56.93
2023-01-19T16:55:59.500Z,57.30
2023-01-19T16:58:27.778Z,56.30
2023-01-19T17:00:56.217Z,56.27
2023-01-19T17:03:27.130Z,64.37
2023-01-19T17:05:55.531Z,56.17
2023-01-19T17:08:23.750Z,64.43
2023-01-19T17:10:52.065Z,58.53
2023-01-19T17:13:20.309Z,64.00
2023-01-19T17:15:48.976Z,58.60
2023-01-19T17:18:17.233Z,57.67
2023-01-19T17:20:46.882Z,59.47
2023-01-19T17:23:15.167Z,64.00
2023-01-19T17:25:43.515Z,60.23
2023-01-19T17:28:11.785Z,66.47
2023-01-19T17:30:40.096Z,71.53
2023-01-19T17:33:08.431Z,69.20
2023-01-19T17:35:36.713Z,71.27
2023-01-19T17:38:06.411Z,73.47
2023-01-19T17:40:34.697Z,74.30
2023-01-19T17:43:02.949Z,68.70
2023-01-19T17:45:31.213Z,64.80
2023-01-19T17:47:59.503Z,64.37
2023-01-19T17:50:27.978Z,64.17
2023-01-19T17:52:56.247Z,59.83
2023-01-19T17:55:25.902Z,59.93
2023-01-19T17:57:54.186Z,57.80
2023-01-19T18:00:23.123Z,61.50
2023-01-19T18:02:52.002Z,51.90
2023-01-19T18:05:20.567Z,58.70
2023-01-19T18:07:48.861Z,56.10
2023-01-19T18:10:17.753Z,54.70
2023-01-19T18:12:47.401Z,59.90
2023-01-19T18:15:17.010Z,55.73
2023-01-19T18:17:45.385Z,52.03
2023-01-19T18:20:14.206Z,54.00
2023-01-19T18:22:42.633Z,57.17
2023-01-19T18:25:11.232Z,68.53
2023-01-19T18:27:39.508Z,58.23
2023-01-19T18:30:10.792Z,68.50
2023-01-19T18:32:39.173Z,74.73
2023-01-19T18:35:08.791Z,77.00
2023-01-19T18:37:37.090Z,72.10
2023-01-19T18:40:06.170Z,58.30
2023-01-19T18:42:35.382Z,66.00
2023-01-19T18:45:03.855Z,67.83
2023-01-19T18:47:34.111Z,57.47
2023-01-19T18:50:02.471Z,56.70
2023-01-19T18:52:32.342Z,57.07
2023-01-19T18:55:00.754Z,52.37
2023-01-19T18:57:29.043Z,57.53
2023-01-19T18:59:57.376Z,56.43
2023-01-19T19:02:25.654Z,64.27
2023-01-19T19:04:55.391Z,52.30
2023-01-19T19:07:23.713Z,64.90
2023-01-19T19:09:52.007Z,53.07
2023-01-19T19:12:20.287Z,54.73
2023-01-19T19:14:48.516Z,55.57
2023-01-19T19:17:16.761Z,57.80
2023-01-19T19:19:45.112Z,56.40
2023-01-19T19:22:14.777Z,58.67
2023-01-19T19:24:43.102Z,45.60
2023-01-19T19:27:14.245Z,52.73
2023-01-19T19:29:44.024Z,55.47
2023-01-19T19:32:12.336Z,54.20
2023-01-19T19:34:40.796Z,53.83
2023-01-19T19:37:09.077Z,55.33
2023-01-19T19:39:39.457Z,58.60
2023-01-19T19:42:07.783Z,57.37
2023-01-19T19:44:36.116Z,53.93
2023-01-19T19:47:04.444Z,51.47
2023-01-19T19:49:32.803Z,57.20
2023-01-19T19:52:01.210Z,57.03
2023-01-19T19:54:29.588Z,57.13
2023-01-19T19:56:59.253Z,51.50
2023-01-19T19:59:27.654Z,57.87
2023-01-19T20:01:55.966Z,53.43
2023-01-19T20:04:25.453Z,54.43
2023-01-19T20:06:53.819Z,53.93
2023-01-19T20:09:22.162Z,55.73
2023-01-19T20:11:50.489Z,61.67
2023-01-19T20:14:21.198Z,59.10
2023-01-19T20:16:49.689Z,61.40
2023-01-19T20:19:18.358Z,61.97
2023-01-19T20:21:46.668Z,66.07
2023-01-19T20:24:15.862Z,69.80
2023-01-19T20:26:45.904Z,65.67
2023-01-19T20:29:14.156Z,67.90
2023-01-19T20:31:45.809Z,72.70
2023-01-19T20:34:15.767Z,68.97
2023-01-19T20:36:44.424Z,76.63
2023-01-19T20:39:12.894Z,71.10
2023-01-19T20:41:45.130Z,73.17
2023-01-19T20:44:13.969Z,77.73
2023-01-19T20:46:42.557Z,70.43
2023-01-19T20:49:12.472Z,76.33
2023-01-19T20:51:43.465Z,77.37
2023-01-19T20:54:12.047Z,78.83
2023-01-19T20:56:41.389Z,77.67
2023-01-19T20:59:09.822Z,73.17
2023-01-19T21:01:38.437Z,80.83
2023-01-19T21:04:06.944Z,76.10
2023-01-19T21:06:36.861Z,67.87
2023-01-19T21:09:05.386Z,74.83
2023-01-19T21:11:33.712Z,74.80
2023-01-19T21:14:02.054Z,68.40
2023-01-19T21:16:31.979Z,76.37
2023-01-19T21:19:00.344Z,73.43
2023-01-19T21:21:31.105Z,71.40
2023-01-19T21:24:02.256Z,71.20
2023-01-19T21:26:31.042Z,75.00
2023-01-19T21:28:59.460Z,73.80
2023-01-19T21:31:28.431Z,74.57
2023-01-19T21:33:57.244Z,77.00
2023-01-19T21:36:25.621Z,68.70
2023-01-19T21:38:55.688Z,75.03
2023-01-19T21:41:25.647Z,70.90
2023-01-19T21:43:53.985Z,71.37
2023-01-19T21:46:22.865Z,59.50
2023-01-19T21:48:51.261Z,57.37
2023-01-19T21:51:19.679Z,63.03
2023-01-19T21:53:47.991Z,70.13
2023-01-19T21:56:17.035Z,71.70
2023-01-19T21:58:48.314Z,58.20
2023-01-19T22:01:16.728Z,61.03
2023-01-19T22:03:45.084Z,60.87
2023-01-19T22:06:14.667Z,58.77
2023-01-19T22:08:44.803Z,56.80
2023-01-19T22:11:13.900Z,63.90
2023-01-19T22:13:42.231Z,61.70
2023-01-19T22:16:12.720Z,64.27
2023-01-19T22:18:41.725Z,66.77
2023-01-19T22:21:10.861Z,61.63
2023-01-19T22:23:39.123Z,64.90
2023-01-19T22:26:07.419Z,68.37
2023-01-19T22:28:35.748Z,60.90
2023-01-19T22:31:05.180Z,62.00
2023-01-19T22:33:34.891Z,66.27
2023-01-19T22:36:13.902Z,61.37
2023-01-19T22:38:42.298Z,67.43
2023-01-19T22:41:15.033Z,67.73
2023-01-19T22:43:43.448Z,61.63
2023-01-19T22:46:11.848Z,68.10
2023-01-19T22:48:41.680Z,63.90
2023-01-19T22:51:10.245Z,69.87
2023-01-19T22:53:38.474Z,69.47
2023-01-19T22:56:14.137Z,73.23
2023-01-19T22:58:44.251Z,79.07
2023-01-19T23:01:12.977Z,69.30
2023-01-19T23:03:42.704Z,75.83
2023-01-19T23:06:11.961Z,67.80
2023-01-19T23:08:40.294Z,74.37
2023-01-19T23:11:09.640Z,77.60
2023-01-19T23:13:38.060Z,74.83
2023-01-19T23:16:08.141Z,72.27
2023-01-19T23:18:36.433Z,74.97
2023-01-19T23:21:22.021Z,80.07
2023-01-19T23:23:50.284Z,72.03
2023-01-19T23:26:19.435Z,73.53
2023-01-19T23:28:47.860Z,76.90
2023-01-19T23:31:17.247Z,73.60
2023-01-19T23:33:45.560Z,76.33
2023-01-19T23:36:13.918Z,76.13
2023-01-19T23:38:43.551Z,75.47
2023-01-19T23:41:11.963Z,79.50
2023-01-19T23:43:40.208Z,82.00
2023-01-19T23:46:09.379Z,90.17
2023-01-19T23:48:37.976Z,86.93
2023-01-19T23:51:09.272Z,86.13
2023-01-19T23:53:37.796Z,80.83
2023-01-19T23:56:14.542Z,82.90
2023-01-19T23:58:42.849Z,81.67
